createdAt,value
2019-02-24T00:00:04.673Z,7.70
2019-02-24T00:02:35.490Z,7.70
2019-02-24T00:05:05.765Z,7.60
2019-02-24T00:07:35.020Z,7.60
2019-02-24T00:10:05.200Z,7.60
2019-02-24T00:12:34.768Z,7.60
2019-02-24T00:15:05.535Z,7.50
2019-02-24T00:17:34.757Z,7.50
2019-02-24T00:20:04.687Z,7.50
2019-02-24T00:22:33.947Z,7.50
2019-02-24T00:25:03.388Z,7.40
2019-02-24T00:27:32.640Z,7.40
2019-02-24T00:30:01.848Z,7.40
2019-02-24T00:32:34.500Z,7.40
2019-02-24T00:35:04.635Z,7.30
2019-02-24T00:37:33.888Z,7.30
2019-02-24T00:40:03.414Z,7.30
2019-02-24T00:42:32.694Z,7.30
2019-02-24T00:45:01.866Z,7.30
2019-02-24T00:47:32.732Z,7.20
2019-02-24T00:50:02.267Z,7.20
2019-02-24T00:52:31.521Z,7.10
2019-02-24T00:55:01.103Z,7.10
2019-02-24T00:57:30.366Z,7.10
2019-02-24T01:00:00.554Z,7.10
2019-02-24T01:02:29.714Z,7.00
2019-02-24T01:04:59.197Z,7.00
2019-02-24T01:07:28.487Z,7.00
2019-02-24T01:09:57.738Z,7.00
2019-02-24T01:12:27.001Z,6.90
2019-02-24T01:14:56.286Z,6.90
2019-02-24T01:17:25.481Z,6.90
2019-02-24T01:19:54.768Z,6.90
2019-02-24T01:22:23.976Z,6.80
2019-02-24T01:24:53.137Z,6.80
2019-02-24T01:27:22.315Z,6.80
2019-02-24T01:29:51.774Z,6.80
2019-02-24T01:32:21.050Z,6.80
2019-02-24T01:34:50.314Z,6.80
2019-02-24T01:37:19.590Z,6.70
2019-02-24T01:39:48.818Z,6.70
2019-02-24T01:42:18.075Z,6.70
2019-02-24T01:44:47.273Z,6.70
2019-02-24T01:47:16.430Z,6.60
2019-02-24T01:49:45.616Z,6.60
2019-02-24T01:52:15.294Z,6.60
2019-02-24T01:54:44.460Z,6.60
2019-02-24T01:57:13.774Z,6.50
2019-02-24T01:59:42.978Z,6.50
2019-02-24T02:02:12.208Z,6.50
2019-02-24T02:04:41.393Z,6.40
2019-02-24T02:07:10.938Z,6.40
2019-02-24T02:09:40.115Z,6.40
2019-02-24T02:12:11.186Z,6.40
2019-02-24T02:14:41.509Z,6.30
2019-02-24T02:17:10.796Z,6.30
2019-02-24T02:19:40.002Z,6.30
2019-02-24T02:22:09.188Z,6.30
2019-02-24T02:24:38.470Z,6.30
2019-02-24T02:27:07.700Z,6.30
2019-02-24T02:29:37.349Z,6.30
2019-02-24T02:32:06.610Z,6.20
2019-02-24T02:34:36.243Z,6.20
2019-02-24T02:37:05.411Z,6.20
2019-02-24T02:39:34.568Z,6.20
2019-02-24T02:42:03.783Z,6.10
2019-02-24T02:44:32.950Z,6.10
2019-02-24T02:47:02.407Z,6.10
2019-02-24T02:49:31.942Z,6.10
2019-02-24T02:52:01.125Z,6.10
2019-02-24T02:54:30.386Z,6.00
2019-02-24T02:56:59.805Z,6.00
2019-02-24T02:59:29.024Z,6.00
2019-02-24T03:01:59.265Z,6.00
2019-02-24T03:04:28.529Z,5.90
2019-02-24T03:07:02.518Z,5.90
2019-02-24T03:09:31.681Z,5.90
2019-02-24T03:12:00.949Z,5.90
2019-02-24T03:14:31.087Z,5.90
2019-02-24T03:17:00.579Z,5.90
2019-02-24T03:19:29.813Z,5.90
2019-02-24T03:21:59.040Z,5.90
2019-02-24T03:24:28.345Z,5.80
2019-02-24T03:26:57.594Z,5.80
2019-02-24T03:29:27.066Z,5.80
2019-02-24T03:31:56.307Z,5.80
2019-02-24T03:34:25.582Z,5.80
2019-02-24T03:36:54.809Z,5.80
2019-02-24T03:39:23.987Z,5.70
2019-02-24T03:41:53.553Z,5.70
2019-02-24T03:44:23.110Z,5.70
2019-02-24T03:46:52.362Z,5.70
2019-02-24T03:49:21.565Z,5.70
2019-02-24T03:51:51.029Z,5.70
2019-02-24T03:54:20.469Z,5.70
2019-02-24T03:56:49.683Z,5.70
2019-02-24T03:59:18.981Z,5.70
2019-02-24T04:01:48.226Z,5.70
2019-02-24T04:04:17.725Z,5.70
2019-02-24T04:06:46.977Z,5.70
2019-02-24T04:09:16.164Z,5.60
2019-02-24T04:11:45.359Z,5.60
2019-02-24T04:14:14.536Z,5.60
2019-02-24T04:16:44.046Z,5.60
2019-02-24T04:19:13.322Z,5.60
2019-02-24T04:21:42.477Z,5.60
2019-02-24T04:24:11.667Z,5.60
2019-02-24T04:26:40.993Z,5.60
2019-02-24T04:29:10.151Z,5.50
2019-02-24T04:31:39.421Z,5.50
2019-02-24T04:34:08.626Z,5.50
2019-02-24T04:36:38.769Z,5.50
2019-02-24T04:39:08.202Z,5.50
2019-02-24T04:41:37.372Z,5.40
2019-02-24T04:44:06.569Z,5.40
2019-02-24T04:46:36.114Z,5.40
2019-02-24T04:49:05.346Z,5.40
2019-02-24T04:51:34.609Z,5.40
2019-02-24T04:54:03.881Z,5.40
2019-02-24T04:56:33.152Z,5.40
2019-02-24T04:59:02.446Z,5.40
2019-02-24T05:01:31.895Z,5.30
2019-02-24T05:04:01.393Z,5.30
2019-02-24T05:06:30.588Z,5.20
2019-02-24T05:09:01.156Z,5.20
2019-02-24T05:11:31.898Z,5.20
2019-02-24T05:14:01.167Z,5.20
2019-02-24T05:16:30.790Z,5.20
2019-02-24T05:19:00.143Z,5.10
2019-02-24T05:21:29.422Z,5.10
2019-02-24T05:23:58.632Z,5.10
2019-02-24T05:26:27.897Z,5.10
2019-02-24T05:28:57.086Z,5.10
2019-02-24T05:31:26.317Z,5.10
2019-02-24T05:33:55.553Z,5.00
2019-02-24T05:36:25.260Z,5.00
2019-02-24T05:38:54.497Z,5.00
2019-02-24T05:41:23.674Z,5.00
2019-02-24T05:43:52.960Z,5.00
2019-02-24T05:46:22.118Z,5.00
2019-02-24T05:48:51.289Z,4.90
2019-02-24T05:51:21.568Z,4.90
2019-02-24T05:53:52.084Z,4.90
2019-02-24T05:56:22.432Z,4.90
2019-02-24T05:58:51.926Z,4.90
2019-02-24T06:01:21.463Z,4.80
2019-02-24T06:03:51.062Z,4.80
2019-02-24T06:06:20.293Z,4.80
2019-02-24T06:08:49.465Z,4.80
2019-02-24T06:11:19.027Z,4.80
2019-02-24T06:13:48.176Z,4.80
2019-02-24T06:16:17.346Z,4.70
2019-02-24T06:18:46.556Z,4.70
2019-02-24T06:21:15.718Z,4.70
2019-02-24T06:23:44.924Z,4.70
2019-02-24T06:26:14.240Z,4.70
2019-02-24T06:28:43.477Z,4.70
2019-02-24T06:31:12.664Z,4.70
2019-02-24T06:33:41.956Z,4.70
2019-02-24T06:36:11.192Z,4.70
2019-02-24T06:38:40.458Z,4.60
2019-02-24T06:41:09.658Z,4.60
2019-02-24T06:43:38.926Z,4.60
2019-02-24T06:46:09.705Z,4.60
2019-02-24T06:48:39.027Z,4.60
2019-02-24T06:51:10.064Z,4.60
2019-02-24T06:53:39.292Z,4.60
2019-02-24T06:56:08.573Z,4.60
2019-02-24T06:58:37.801Z,4.60
2019-02-24T07:01:07.030Z,4.70
2019-02-24T07:03:36.268Z,4.60
2019-02-24T07:06:05.977Z,4.70
2019-02-24T07:08:35.222Z,4.60
2019-02-24T07:11:04.487Z,4.60
2019-02-24T07:13:33.663Z,4.60
2019-02-24T07:16:02.909Z,4.60
2019-02-24T07:18:32.187Z,4.60
2019-02-24T07:21:01.621Z,4.60
2019-02-24T07:23:30.913Z,4.70
2019-02-24T07:26:00.107Z,4.70
2019-02-24T07:28:29.304Z,4.70
2019-02-24T07:30:58.471Z,4.70
2019-02-24T07:33:27.669Z,4.70
2019-02-24T07:35:57.175Z,4.70
2019-02-24T07:38:26.371Z,4.60
2019-02-24T07:40:55.815Z,4.70
2019-02-24T07:43:25.083Z,4.70
2019-02-24T07:45:54.285Z,4.70
2019-02-24T07:48:23.615Z,4.70
2019-02-24T07:50:52.847Z,4.80
2019-02-24T07:53:22.043Z,4.70
2019-02-24T07:55:51.245Z,4.80
2019-02-24T07:58:20.488Z,4.80
2019-02-24T08:00:49.750Z,4.80
2019-02-24T08:03:19.031Z,4.90
2019-02-24T08:05:48.231Z,5.00
2019-02-24T08:08:17.440Z,5.00
2019-02-24T08:10:46.743Z,5.10
2019-02-24T08:13:15.999Z,5.10
2019-02-24T08:15:45.305Z,5.10
2019-02-24T08:18:16.341Z,5.20
2019-02-24T08:20:45.669Z,5.20
2019-02-24T08:23:15.038Z,5.30
2019-02-24T08:25:44.327Z,5.30
2019-02-24T08:28:20.501Z,5.40
2019-02-24T08:30:49.837Z,5.40
2019-02-24T08:33:19.199Z,5.40
2019-02-24T08:35:48.447Z,5.50
2019-02-24T08:38:18.015Z,5.60
2019-02-24T08:40:47.273Z,5.60
2019-02-24T08:43:16.529Z,5.60
2019-02-24T08:45:45.809Z,5.70
2019-02-24T08:48:15.045Z,5.70
2019-02-24T08:50:44.312Z,5.80
2019-02-24T08:53:13.513Z,5.80
2019-02-24T08:55:42.682Z,5.90
2019-02-24T08:58:12.069Z,6.00
2019-02-24T09:00:50.535Z,6.00
2019-02-24T09:03:12.340Z,6.00
2019-02-24T09:05:41.504Z,6.10
2019-02-24T09:08:10.702Z,6.20
2019-02-24T09:10:39.941Z,6.30
2019-02-24T09:13:09.113Z,6.40
2019-02-24T09:15:38.319Z,6.40
2019-02-24T09:18:07.862Z,6.40
2019-02-24T09:20:37.043Z,6.50
2019-02-24T09:23:06.514Z,6.50
2019-02-24T09:25:35.821Z,6.60
2019-02-24T09:28:04.994Z,6.70
2019-02-24T09:30:34.221Z,6.80
2019-02-24T09:33:03.395Z,6.80
2019-02-24T09:35:32.661Z,6.80
2019-02-24T09:38:01.889Z,6.90
2019-02-24T09:40:31.078Z,7.00
2019-02-24T09:43:00.308Z,7.10
2019-02-24T09:45:29.987Z,7.20
2019-02-24T09:47:59.165Z,7.20
2019-02-24T09:50:28.480Z,7.30
2019-02-24T09:52:57.798Z,7.30
2019-02-24T09:55:27.136Z,7.30
2019-02-24T09:57:56.387Z,7.40
2019-02-24T10:00:25.752Z,7.40
2019-02-24T10:02:55.028Z,7.40
2019-02-24T10:05:24.292Z,7.40
2019-02-24T10:07:53.493Z,7.50
2019-02-24T10:10:22.725Z,7.50
2019-02-24T10:12:51.896Z,7.50
2019-02-24T10:15:21.188Z,7.60
2019-02-24T10:17:50.776Z,7.60
2019-02-24T10:20:21.036Z,7.70
2019-02-24T10:22:50.566Z,7.70
2019-02-24T10:25:19.812Z,7.80
2019-02-24T10:27:49.145Z,7.80
2019-02-24T10:30:18.328Z,7.90
2019-02-24T10:32:47.513Z,7.90
2019-02-24T10:35:16.711Z,8.00
2019-02-24T10:37:46.256Z,8.10
2019-02-24T10:40:16.676Z,8.20
2019-02-24T10:42:46.088Z,8.30
2019-02-24T10:45:18.924Z,8.30
2019-02-24T10:47:48.101Z,8.50
2019-02-24T10:50:17.848Z,8.50
2019-02-24T10:52:47.078Z,8.60
2019-02-24T10:55:16.374Z,8.70
2019-02-24T10:57:45.628Z,8.80
2019-02-24T11:00:21.532Z,8.80
2019-02-24T11:02:50.706Z,8.90
2019-02-24T11:05:20.073Z,8.90
2019-02-24T11:07:49.383Z,9.10
2019-02-24T11:10:18.618Z,9.10
2019-02-24T11:12:47.806Z,9.10
2019-02-24T11:15:17.487Z,9.20
2019-02-24T11:17:46.742Z,9.30
2019-02-24T11:20:17.454Z,9.40
2019-02-24T11:22:47.266Z,9.40
2019-02-24T11:25:16.970Z,9.50
2019-02-24T11:27:46.576Z,9.60
2019-02-24T11:30:15.837Z,9.60
2019-02-24T11:32:45.053Z,9.70
2019-02-24T11:35:14.219Z,9.70
2019-02-24T11:37:43.448Z,9.80
2019-02-24T11:40:17.368Z,9.90
2019-02-24T11:42:46.556Z,9.90
2019-02-24T11:45:15.901Z,10.00
2019-02-24T11:47:45.245Z,10.10
2019-02-24T11:50:14.477Z,10.20
2019-02-24T11:52:43.729Z,10.20
2019-02-24T11:55:12.970Z,10.40
2019-02-24T11:57:42.217Z,10.40
2019-02-24T12:00:15.622Z,10.50
2019-02-24T12:02:44.938Z,10.70
2019-02-24T12:05:14.232Z,10.70
2019-02-24T12:07:43.443Z,10.70
2019-02-24T12:10:13.606Z,10.70
2019-02-24T12:12:42.935Z,10.70
2019-02-24T12:15:13.504Z,10.80
2019-02-24T12:17:43.193Z,10.80
2019-02-24T12:20:15.464Z,10.90
2019-02-24T12:22:44.741Z,11.00
2019-02-24T12:25:13.996Z,11.10
2019-02-24T12:27:43.640Z,11.10
2019-02-24T12:30:15.948Z,11.10
2019-02-24T12:32:45.282Z,11.20
2019-02-24T12:35:14.532Z,11.20
2019-02-24T12:37:44.106Z,11.20
2019-02-24T12:40:14.686Z,11.30
2019-02-24T12:42:44.054Z,11.30
2019-02-24T12:45:13.337Z,11.40
2019-02-24T12:47:42.689Z,11.40
2019-02-24T12:50:17.408Z,11.50
2019-02-24T12:52:46.723Z,11.50
2019-02-24T12:55:15.980Z,11.60
2019-02-24T12:57:45.327Z,11.70
2019-02-24T13:00:23.887Z,11.70
2019-02-24T13:02:53.141Z,11.80
2019-02-24T13:05:22.350Z,11.80
2019-02-24T13:07:51.630Z,11.80
2019-02-24T13:10:20.870Z,11.90
2019-02-24T13:12:50.442Z,11.90
2019-02-24T13:15:19.752Z,11.80
2019-02-24T13:17:50.177Z,11.90
2019-02-24T13:20:19.388Z,12.00
2019-02-24T13:22:48.751Z,12.00
2019-02-24T13:25:18.354Z,12.00
2019-02-24T13:27:47.730Z,12.10
2019-02-24T13:30:17.293Z,12.10
2019-02-24T13:32:46.499Z,12.20
2019-02-24T13:35:15.827Z,12.20
2019-02-24T13:37:46.226Z,12.30
2019-02-24T13:40:16.501Z,12.40
2019-02-24T13:42:45.731Z,12.40
2019-02-24T13:45:22.281Z,12.50
2019-02-24T13:47:51.528Z,12.50
2019-02-24T13:50:21.000Z,12.50
2019-02-24T13:52:51.871Z,12.60
2019-02-24T13:55:21.079Z,12.60
2019-02-24T13:57:50.290Z,12.70
2019-02-24T14:00:22.725Z,12.70
2019-02-24T14:02:51.965Z,12.70
2019-02-24T14:05:21.692Z,12.80
2019-02-24T14:07:51.047Z,12.90
2019-02-24T14:10:21.371Z,12.90
2019-02-24T14:12:50.617Z,13.00
2019-02-24T14:15:19.814Z,13.10
2019-02-24T14:17:49.078Z,13.10
2019-02-24T14:20:18.700Z,13.20
2019-02-24T14:22:48.010Z,13.30
2019-02-24T14:25:17.506Z,13.40
2019-02-24T14:27:46.716Z,13.50
2019-02-24T14:30:16.997Z,13.50
2019-02-24T14:32:46.233Z,13.50
2019-02-24T14:35:18.114Z,13.50
2019-02-24T14:37:47.404Z,13.40
2019-02-24T14:40:16.628Z,13.40
2019-02-24T14:42:45.888Z,13.40
2019-02-24T14:45:19.901Z,13.40
2019-02-24T14:47:49.485Z,13.40
2019-02-24T14:50:18.670Z,13.40
2019-02-24T14:55:25.056Z,13.50
2019-02-24T14:57:54.298Z,13.50
2019-02-24T15:00:24.140Z,13.60
2019-02-24T15:02:53.366Z,13.60
2019-02-24T15:05:22.637Z,13.70
2019-02-24T15:07:51.938Z,13.70
2019-02-24T15:10:25.368Z,13.70
2019-02-24T15:12:54.744Z,13.70
2019-02-24T15:15:32.952Z,13.80
2019-02-24T15:17:58.454Z,13.80
2019-02-24T15:20:27.705Z,13.80
2019-02-24T15:22:57.018Z,13.80
2019-02-24T15:25:26.232Z,13.80
2019-02-24T15:27:55.508Z,13.90
2019-02-24T15:30:31.314Z,13.90
2019-02-24T15:33:00.578Z,14.00
2019-02-24T15:35:29.842Z,14.00
2019-02-24T15:37:59.167Z,14.10
2019-02-24T15:40:28.427Z,14.10
2019-02-24T15:42:57.682Z,14.10
2019-02-24T15:45:26.880Z,14.10
2019-02-24T15:47:56.146Z,14.10
2019-02-24T15:50:25.333Z,14.10
2019-02-24T15:52:54.582Z,14.10
2019-02-24T15:55:23.796Z,14.10
2019-02-24T15:57:52.965Z,14.10
2019-02-24T16:00:25.311Z,14.10
2019-02-24T16:03:00.997Z,14.10
2019-02-24T16:05:25.738Z,14.10
2019-02-24T16:07:54.997Z,14.10
2019-02-24T16:10:25.228Z,14.10
2019-02-24T16:12:54.489Z,14.20
2019-02-24T16:15:25.627Z,14.20
2019-02-24T16:17:54.784Z,14.20
2019-02-24T16:20:36.051Z,14.10
2019-02-24T16:23:05.555Z,14.10
2019-02-24T16:25:35.161Z,14.00
2019-02-24T16:28:04.601Z,14.00
2019-02-24T16:30:33.940Z,14.00
2019-02-24T16:33:10.319Z,14.00
2019-02-24T16:35:34.064Z,13.90
2019-02-24T16:38:03.313Z,13.90
2019-02-24T16:40:32.523Z,13.90
2019-02-24T16:43:01.864Z,13.80
2019-02-24T16:45:31.311Z,13.80
2019-02-24T16:48:00.587Z,13.80
2019-02-24T16:50:29.970Z,13.80
2019-02-24T16:52:59.243Z,13.70
2019-02-24T16:55:28.491Z,13.70
2019-02-24T16:57:57.723Z,13.70
2019-02-24T17:00:28.387Z,13.60
2019-02-24T17:02:57.685Z,13.60
2019-02-24T17:05:26.991Z,13.50
2019-02-24T17:07:56.250Z,13.50
2019-02-24T17:10:26.811Z,13.50
2019-02-24T17:12:56.531Z,13.50
2019-02-24T17:15:26.100Z,13.50
2019-02-24T17:17:55.357Z,13.40
2019-02-24T17:20:27.801Z,13.40
2019-02-24T17:22:57.112Z,13.30
2019-02-24T17:25:26.295Z,13.30
2019-02-24T17:27:55.527Z,13.30
2019-02-24T17:30:24.815Z,13.20
2019-02-24T17:32:54.094Z,13.20
2019-02-24T17:35:23.565Z,13.10
2019-02-24T17:37:52.852Z,13.10
2019-02-24T17:40:22.554Z,13.00
2019-02-24T17:42:51.733Z,13.00
2019-02-24T17:45:21.093Z,13.00
2019-02-24T17:47:50.307Z,13.00
2019-02-24T17:50:20.006Z,13.00
2019-02-24T17:52:49.322Z,13.00
2019-02-24T17:55:19.522Z,12.90
2019-02-24T17:57:48.871Z,12.90
2019-02-24T18:00:22.410Z,12.90
2019-02-24T18:02:51.839Z,12.90
2019-02-24T18:05:21.023Z,12.90
2019-02-24T18:07:50.283Z,12.80
2019-02-24T18:10:19.561Z,12.80
2019-02-24T18:12:48.729Z,12.80
2019-02-24T18:15:17.917Z,12.80
2019-02-24T18:17:47.258Z,12.80
2019-02-24T18:20:21.227Z,12.80
2019-02-24T18:22:50.402Z,12.70
2019-02-24T18:25:19.815Z,12.70
2019-02-24T18:27:48.985Z,12.70
2019-02-24T18:30:22.959Z,12.70
2019-02-24T18:32:52.164Z,12.70
2019-02-24T18:35:21.669Z,12.70
2019-02-24T18:37:50.903Z,12.70
2019-02-24T18:40:20.191Z,12.60
2019-02-24T18:42:49.424Z,12.60
2019-02-24T18:45:18.583Z,12.60
2019-02-24T18:47:49.663Z,12.60
2019-02-24T18:50:19.885Z,12.60
2019-02-24T18:52:49.157Z,12.60
2019-02-24T18:55:18.361Z,12.50
2019-02-24T18:57:47.610Z,12.50
2019-02-24T19:00:20.449Z,12.50
2019-02-24T19:02:51.352Z,12.50
2019-02-24T19:05:20.594Z,12.50
2019-02-24T19:07:49.763Z,12.50
2019-02-24T19:10:22.843Z,12.50
2019-02-24T19:12:52.000Z,12.50
2019-02-24T19:15:24.794Z,12.40
2019-02-24T19:17:54.940Z,12.40
2019-02-24T19:20:24.860Z,12.40
2019-02-24T19:22:54.114Z,12.40
2019-02-24T19:25:23.373Z,12.40
2019-02-24T19:27:52.577Z,12.40
2019-02-24T19:30:22.008Z,12.40
2019-02-24T19:32:51.264Z,12.40
2019-02-24T19:35:20.466Z,12.30
2019-02-24T19:37:49.634Z,12.30
2019-02-24T19:40:20.993Z,12.30
2019-02-24T19:42:50.150Z,12.30
2019-02-24T19:45:26.427Z,12.30
2019-02-24T19:47:55.597Z,12.20
2019-02-24T19:50:25.224Z,12.20
2019-02-24T19:52:54.508Z,12.20
2019-02-24T19:55:23.708Z,12.20
2019-02-24T19:57:52.881Z,12.10
2019-02-24T20:00:23.128Z,12.10
2019-02-24T20:02:52.294Z,12.10
2019-02-24T20:05:21.536Z,12.10
2019-02-24T20:07:50.825Z,12.10
2019-02-24T20:10:23.260Z,12.00
2019-02-24T20:12:52.526Z,12.00
2019-02-24T20:15:21.699Z,12.00
2019-02-24T20:17:50.967Z,11.90
2019-02-24T20:20:20.238Z,11.90
2019-02-24T20:22:49.555Z,11.90
2019-02-24T20:25:20.539Z,11.90
2019-02-24T20:27:49.750Z,11.80
2019-02-24T20:30:29.533Z,11.80
2019-02-24T20:32:58.737Z,11.80
2019-02-24T20:35:27.966Z,11.80
2019-02-24T20:37:58.234Z,11.80
2019-02-24T20:40:27.411Z,11.70
2019-02-24T20:42:56.661Z,11.70
2019-02-24T20:45:25.931Z,11.70
2019-02-24T20:47:55.098Z,11.60
2019-02-24T20:50:29.334Z,11.60
2019-02-24T20:52:58.493Z,11.60
2019-02-24T20:55:27.681Z,11.60
2019-02-24T20:57:56.936Z,11.60
2019-02-24T21:00:32.576Z,11.60
2019-02-24T21:03:01.835Z,11.50
2019-02-24T21:05:31.046Z,11.50
2019-02-24T21:08:00.220Z,11.50
2019-02-24T21:10:29.408Z,11.40
2019-02-24T21:12:59.544Z,11.40
2019-02-24T21:15:28.975Z,11.40
2019-02-24T21:17:58.180Z,11.40
2019-02-24T21:20:29.083Z,11.40
2019-02-24T21:22:58.285Z,11.40
2019-02-24T21:25:27.548Z,11.40
2019-02-24T21:27:56.749Z,11.40
2019-02-24T21:30:25.958Z,11.40
2019-02-24T21:32:55.129Z,11.30
2019-02-24T21:35:24.635Z,11.30
2019-02-24T21:37:53.845Z,11.30
2019-02-24T21:40:23.759Z,11.30
2019-02-24T21:42:53.145Z,11.30
2019-02-24T21:45:27.545Z,11.30
2019-02-24T21:47:56.707Z,11.20
2019-02-24T21:50:25.969Z,11.20
2019-02-24T21:52:55.233Z,11.20
2019-02-24T21:55:24.406Z,11.20
2019-02-24T21:57:53.592Z,11.10
2019-02-24T22:00:26.857Z,11.10
2019-02-24T22:02:56.021Z,11.10
2019-02-24T22:05:25.189Z,11.00
2019-02-24T22:07:55.724Z,11.00
2019-02-24T22:10:25.145Z,11.00
2019-02-24T22:12:54.363Z,11.00
2019-02-24T22:15:25.719Z,10.90
2019-02-24T22:17:54.972Z,10.80
2019-02-24T22:20:24.242Z,10.80
2019-02-24T22:22:53.396Z,10.80
2019-02-24T22:25:22.570Z,10.70
2019-02-24T22:27:51.764Z,10.70
2019-02-24T22:30:22.345Z,10.70
2019-02-24T22:32:52.585Z,10.70
2019-02-24T22:35:21.747Z,10.70
2019-02-24T22:37:50.941Z,10.70
2019-02-24T22:40:20.147Z,10.70
2019-02-24T22:42:49.305Z,10.70
2019-02-24T22:45:19.530Z,10.70
2019-02-24T22:47:48.864Z,10.70
2019-02-24T22:50:20.702Z,10.60
2019-02-24T22:52:49.652Z,10.60
2019-02-24T22:55:19.262Z,10.60
2019-02-24T22:57:48.433Z,10.60
2019-02-24T23:00:52.128Z,10.50
2019-02-24T23:03:28.531Z,10.50
2019-02-24T23:05:57.732Z,10.50
2019-02-24T23:08:27.155Z,10.50
2019-02-24T23:10:56.324Z,10.40
2019-02-24T23:13:25.664Z,10.40
2019-02-24T23:15:54.833Z,10.40
2019-02-24T23:18:24.080Z,10.30
2019-02-24T23:20:54.372Z,10.30
2019-02-24T23:23:23.541Z,10.20
2019-02-24T23:25:52.727Z,10.20
2019-02-24T23:28:22.001Z,10.20
2019-02-24T23:30:51.155Z,10.20
2019-02-24T23:33:20.421Z,10.20
2019-02-24T23:35:49.887Z,10.20
2019-02-24T23:38:19.066Z,10.10
2019-02-24T23:40:48.262Z,10.10
2019-02-24T23:43:17.465Z,10.10
2019-02-24T23:45:46.624Z,10.10
2019-02-24T23:48:15.799Z,10.10
2019-02-24T23:50:44.984Z,10.10
2019-02-24T23:53:14.216Z,10.10
2019-02-24T23:55:43.386Z,10.00
2019-02-24T23:58:15.018Z,10.00
